Latest Weather Observations for Darwin Airport

IDD60801

Issued at 11:01 pm CST Saturday 1 August 2015 (issued every 30 minutes, with the page automatically refreshed every 10 minutes)

About weather observations | Map of weather stations | Latest weather observations for NT | Other Formats
Station Details ID: 014015 Name: DARWIN AIRPORT Lat: -12.42 Lon: 130.89 Height: 30.4 m
Data from the previous 72 hours. | See also: Recent months at Darwin Airport
Date/Time
CST
Temp
°C
App
Temp
°C
Dew
Point
Rel
Hum
%
Delta-T
°C
Wind Press
QNH
hPa
Press
MSL
hPa
Rain
since 9 am
mm
Dir
 
Spd
km/h
Gust
km/h
Spd
kts
Gust
kts
01/11:00pm 21.3 23.7 17.9 81 2.1 N 2 6 1 3 1015.0 - 0.0
01/10:30pm 23.6 24.5 18.5 73 3.2 SW 11 11 6 6 1015.0 - 0.0
01/10:00pm 21.7 23.5 18.2 80 2.2 SW 6 7 3 4 1014.9 - 0.0
01/09:30pm 22.6 23.8 18.3 76 2.7 WSW 9 11 5 6 1014.7 - 0.0
01/09:00pm 24.2 25.4 18.2 69 3.8 WSW 9 11 5 6 1014.3 1014.1 0.0
01/08:30pm 24.0 25.1 18.1 69 3.7 W 9 11 5 6 1013.8 - 0.0
01/08:00pm 24.6 25.5 18.3 68 4.0 W 11 11 6 6 1013.7 - 0.0
01/07:30pm 25.1 25.5 17.2 61 4.9 WNW 11 13 6 7 1013.4 - 0.0
01/07:00pm 25.7 25.8 16.6 57 5.6 WNW 11 13 6 7 1013.1 - 0.0
01/06:30pm 26.7 26.2 14.9 48 7.1 NNW 11 15 6 8 1012.8 - 0.0
01/06:00pm 27.4 26.8 15.6 48 7.2 N 13 17 7 9 1012.5 1012.3 0.0
01/05:30pm 27.8 25.6 14.9 45 7.8 N 20 28 11 15 1012.3 - 0.0
01/05:00pm 28.3 26.5 15.4 45 7.9 N 19 20 10 11 1012.3 - 0.0
01/04:30pm 28.8 26.8 15.6 44 8.1 N 20 26 11 14 1012.3 - 0.0
01/04:00pm 29.2 25.4 14.7 41 8.8 N 28 32 15 17 1012.5 - 0.0
01/03:30pm 29.2 25.9 13.9 39 9.2 N 24 30 13 16 1012.4 - 0.0
01/03:00pm 29.5 25.9 13.2 36 9.7 N 24 30 13 16 1012.7 1012.5 0.0
01/02:30pm 29.4 26.3 13.5 37 9.5 NNW 22 30 12 16 1013.2 - 0.0
01/02:00pm 29.6 27.4 14.8 40 9.0 NNW 20 26 11 14 1013.5 - 0.0
01/01:30pm 30.9 27.2 9.4 26 12.1 SSE 19 28 10 15 1014.0 - 0.0
01/01:00pm 31.0 28.7 10.4 28 11.8 SSE 13 20 7 11 1014.6 - 0.0
01/12:30pm 30.0 27.2 11.5 32 10.7 E 17 30 9 16 1015.1 - 0.0
01/12:00pm 29.0 25.6 13.6 38 9.2 SE 24 30 13 16 1015.5 1015.3 0.0
01/11:30am 28.7 25.4 12.7 37 9.4 ENE 22 32 12 17 1015.9 - 0.0
01/11:00am 28.5 24.7 13.5 39 8.9 E 26 35 14 19 1016.3 - 0.0
01/10:30am 27.8 24.3 14.5 44 8.0 ENE 26 33 14 18 1016.4 - 0.0
01/10:00am 27.0 23.6 14.7 47 7.4 ENE 26 33 14 18 1016.5 - 0.0
01/09:30am 26.3 24.9 16.6 55 6.0 ENE 19 30 10 16 1016.5 - 0.0
01/09:00am 25.1 25.5 19.0 69 3.9 E 15 20 8 11 1016.3 1016.1 0.0
01/08:30am 24.4 25.7 20.2 77 2.7 E 13 17 7 9 1015.9 - 0.0
01/08:00am 23.5 24.9 20.4 83 2.0 ESE 13 15 7 8 1015.5 - 0.0
01/07:30am 21.8 23.5 20.2 91 1.0 ESE 11 13 6 7 1015.2 - 0.0
01/07:00am 21.5 23.5 19.9 91 1.0 ESE 9 11 5 6 1015.0 - 0.0
01/06:30am 21.0 22.2 19.1 89 1.2 E 11 13 6 7 1014.7 - 0.0
01/06:00am 21.7 23.8 19.3 86 1.5 ESE 7 9 4 5 1014.5 1014.3 0.0
01/05:30am 21.0 21.4 18.1 83 1.8 ESE 13 13 7 7 1014.4 - 0.0
01/05:00am 21.3 22.2 17.6 79 2.3 SE 9 11 5 6 1014.4 - 0.0
01/04:30am 21.9 23.1 17.4 75 2.8 ESE 7 9 4 5 1014.4 - 0.0
01/04:00am 22.6 23.2 16.7 69 3.6 SE 9 11 5 6 1014.3 - 0.0
01/03:30am 22.8 23.1 17.1 70 3.5 ESE 11 13 6 7 1014.3 - 0.0
01/03:00am 21.8 22.9 18.1 79 2.3 ESE 9 11 5 6 1014.5 1014.3 0.0
01/02:30am 21.5 23.2 18.6 83 1.8 SE 7 7 4 4 1014.5 - 0.0
01/02:00am 21.6 23.4 18.7 83 1.8 SE 7 9 4 5 1014.6 - 0.0
01/01:30am 21.9 23.5 19.1 84 1.8 SSE 9 11 5 6 1014.6 - 0.0
01/01:00am 22.9 24.6 19.3 80 2.3 SSE 9 11 5 6 1014.7 - 0.0
01/12:30am 23.3 25.1 19.6 80 2.4 S 9 11 5 6 1014.7 - 0.0
01/12:00am 23.7 25.1 19.5 77 2.7 S 11 15 6 8 1014.7 1014.5 0.0
 
Date/Time
CST
Temp
°C
App
Temp
°C
Dew
Point
Rel
Hum
%
Delta-T
°C
Wind Press
QNH
hPa
Press
MSL
hPa
Rain
since 9 am
mm
Dir
 
Spd
km/h
Gust
km/h
Spd
kts
Gust
kts
31/11:30pm 23.9 25.4 19.7 77 2.7 S 11 13 6 7 1014.5 - 0.0
31/11:00pm 24.2 26.6 19.7 76 2.9 S 6 13 3 7 1014.3 - 0.0
31/10:30pm 24.6 27.0 20.0 75 3.0 NNE 7 9 4 5 1014.1 - 0.0
31/10:00pm 24.6 26.2 20.0 75 3.0 N 11 15 6 8 1013.4 - 0.0
31/09:30pm 24.7 25.4 19.7 73 3.2 NNE 15 19 8 10 1013.3 - 0.0
31/09:00pm 24.9 25.5 19.5 72 3.5 NNE 15 19 8 10 1013.4 1013.2 0.0
31/08:30pm 25.3 25.3 18.9 67 4.1 NNE 17 20 9 11 1013.0 - 0.0
31/08:00pm 25.7 25.7 18.1 63 4.8 NNE 15 19 8 10 1012.8 - 0.0
31/07:30pm 26.3 25.2 17.2 57 5.7 NNE 19 28 10 15 1012.6 - 0.0
31/07:00pm 26.9 24.9 16.4 52 6.5 NNE 22 30 12 16 1012.3 - 0.0
31/06:30pm 27.5 26.0 16.8 52 6.7 NNE 20 28 11 15 1012.0 - 0.0
31/06:00pm 28.4 26.5 16.7 49 7.3 N 22 30 12 16 1011.6 1011.4 0.0
31/05:30pm 29.7 27.3 16.4 44 8.3 N 24 30 13 16 1011.5 - 0.0
31/05:00pm 31.1 27.1 11.8 30 11.3 NNE 24 33 13 18 1011.2 - 0.0
31/04:30pm 31.3 27.2 11.4 29 11.6 NNE 24 33 13 18 1011.2 - 0.0
31/04:00pm 31.9 27.3 9.8 25 12.6 NNE 24 28 13 15 1011.1 - 0.0
31/03:30pm 32.0 27.6 8.8 23 13.0 NNE 22 33 12 18 1011.4 - 0.0
31/03:00pm 31.8 25.9 7.3 21 13.4 NE 28 43 15 23 1011.7 1011.5 0.0
31/02:30pm 31.9 26.6 9.8 25 12.6 ENE 28 41 15 22 1012.2 - 0.0
31/02:00pm 31.7 27.1 9.7 25 12.5 NE 24 37 13 20 1012.6 - 0.0
31/01:45pm 31.0 25.7 9.8 27 12.0 E 28 50 15 27 1012.9 - 0.0
31/01:30pm 31.5 26.3 10.1 26 12.2 NE 28 37 15 20 1013.2 - 0.0
31/01:00pm 31.0 24.9 9.8 27 12.0 E 32 41 17 22 1013.9 - 0.0
31/12:30pm 30.5 24.7 9.5 27 11.8 NE 30 41 16 22 1014.4 - 0.0
31/12:00pm 30.1 23.5 7.7 24 12.2 E 32 41 17 22 1014.9 1014.7 0.0
31/11:30am 29.9 24.7 10.4 29 11.1 E 28 35 15 19 1015.4 - 0.0
31/11:00am 28.9 24.1 11.8 34 9.9 E 28 39 15 21 1015.9 - 0.0
31/10:30am 28.2 24.6 13.1 39 8.9 ENE 24 35 13 19 1016.2 - 0.0
31/10:00am 26.9 23.6 13.9 44 7.7 ENE 24 32 13 17 1016.3 - 0.0
31/09:30am 26.1 22.5 13.1 44 7.6 ENE 24 30 13 16 1016.5 - 0.0
31/09:00am 25.0 22.2 12.7 46 7.1 E 19 24 10 13 1016.3 1016.1 0.0
31/08:30am 23.9 24.7 19.0 74 3.1 E 13 20 7 11 1016.1 - 0.0
31/08:00am 21.8 24.5 20.6 93 0.8 E 7 9 4 5 1015.9 - 0.0
31/07:30am 20.2 22.4 19.6 96 0.4 E 7 9 4 5 1015.8 - 0.0
31/07:00am 20.1 21.4 19.3 95 0.5 ESE 11 11 6 6 1015.7 - 0.0
31/06:30am 20.2 21.4 19.1 93 0.7 ESE 11 13 6 7 1015.5 - 0.0
31/06:00am 19.0 20.2 18.2 95 0.5 E 9 11 5 6 1015.1 1014.9 0.0
31/05:30am 19.4 21.1 18.6 95 0.5 ENE 7 9 4 5 1015.0 - 0.0
31/05:00am 19.3 20.6 18.5 95 0.5 ENE 9 11 5 6 1015.0 - 0.0
31/04:30am 19.7 21.6 18.9 95 0.5 E 7 9 4 5 1015.1 - 0.0
31/04:00am 19.4 21.0 18.3 93 0.7 NE 7 7 4 4 1015.1 - 0.0
31/03:30am 19.8 21.8 18.7 93 0.7 NE 6 7 3 4 1015.2 - 0.0
31/03:00am 20.2 22.2 19.1 93 0.7 ENE 7 9 4 5 1015.2 1015.0 0.0
31/02:30am 20.4 22.4 19.1 92 0.8 NE 7 7 4 4 1015.3 - 0.0
31/02:00am 20.7 22.8 19.3 92 0.9 ENE 7 9 4 5 1015.4 - 0.0
31/01:30am 21.3 23.7 19.6 90 1.1 SE 6 7 3 4 1015.5 - 0.0
31/01:00am 22.1 24.4 19.9 87 1.4 E 7 11 4 6 1015.8 - 0.0
31/12:30am 23.3 25.2 20.5 84 1.8 SSE 11 13 6 7 1015.9 - 0.0
31/12:00am 24.0 25.5 20.5 81 2.3 S 13 17 7 9 1016.0 1015.8 0.0
 
Date/Time
CST
Temp
°C
App
Temp
°C
Dew
Point
Rel
Hum
%
Delta-T
°C
Wind Press
QNH
hPa
Press
MSL
hPa
Rain
since 9 am
mm
Dir
 
Spd
km/h
Gust
km/h
Spd
kts
Gust
kts
30/11:30pm 24.1 26.2 20.9 82 2.1 S 11 13 6 7 1016.3 - 0.0
30/11:00pm 24.2 26.3 21.0 82 2.1 S 11 13 6 7 1016.2 - 0.0
30/10:30pm 24.4 26.5 20.9 81 2.3 S 11 15 6 8 1016.1 - 0.0
30/10:00pm 24.4 26.3 20.6 79 2.5 S 11 11 6 6 1016.0 - 0.0
30/09:30pm 25.0 26.7 20.2 74 3.1 SSW 11 13 6 7 1015.8 - 0.0
30/09:00pm 25.0 26.7 20.2 74 3.1 SSW 11 13 6 7 1015.4 1015.2 0.0
30/08:30pm 25.1 26.5 18.6 67 4.1 WSW 9 11 5 6 1014.9 - 0.0
30/08:00pm 25.2 26.3 18.9 68 4.0 NNE 11 13 6 7 1014.2 - 0.0
30/07:30pm 25.8 26.8 18.6 64 4.6 NNE 11 15 6 8 1013.8 - 0.0
30/07:00pm 26.3 26.6 18.8 63 4.8 NNE 15 19 8 10 1013.5 - 0.0
30/06:30pm 27.6 27.5 17.8 55 6.2 NNE 15 20 8 11 1013.2 - 0.0
30/06:00pm 28.5 27.8 17.4 51 7.0 NNE 17 20 9 11 1013.0 1012.8 0.0
30/05:30pm 29.0 28.0 17.5 49 7.3 N 19 24 10 13 1012.8 - 0.0
30/05:00pm 29.7 28.6 17.4 47 7.8 NNE 19 26 10 14 1012.6 - 0.0
30/04:30pm 30.4 28.9 17.7 46 8.1 NNE 22 28 12 15 1012.5 - 0.0
30/04:00pm 30.7 28.7 17.3 44 8.5 NNE 24 32 13 17 1012.5 - 0.0
30/03:30pm 32.5 29.1 15.9 36 10.4 NNE 28 35 15 19 1012.7 - 0.0
30/03:00pm 31.2 29.1 18.0 45 8.5 NNE 26 33 14 18 1013.1 1012.9 0.0
30/02:30pm 32.4 30.3 12.3 29 11.9 ENE 15 20 8 11 1013.6 - 0.0
30/02:00pm 31.9 28.9 12.5 30 11.5 E 20 28 11 15 1014.1 - 0.0
30/01:30pm 31.4 27.8 13.0 32 11.0 ENE 24 37 13 20 1014.8 - 0.0
30/01:00pm 31.0 27.2 13.7 34 10.4 ENE 26 37 14 20 1015.2 - 0.0
30/12:30pm 31.6 27.5 13.9 34 10.7 ENE 28 39 15 21 1015.7 - 0.0
30/12:00pm 30.3 25.1 13.4 35 10.1 E 33 41 18 22 1016.4 1016.2 0.0
30/11:30am 30.3 25.1 13.4 35 10.1 E 33 44 18 24 1016.5 - 0.0
30/11:00am 29.0 24.1 13.6 38 9.2 ESE 32 41 17 22 1016.9 - 0.0
30/10:30am 28.3 22.2 13.0 39 9.0 E 37 46 20 25 1017.0 - 0.0
30/10:00am 27.3 22.3 13.4 42 8.2 E 32 41 17 22 1017.1 - 0.0
30/09:30am 26.3 22.2 13.8 46 7.4 ESE 28 37 15 20 1017.0 - 0.0
30/09:00am 25.5 23.0 14.2 49 6.7 ESE 20 30 11 16 1016.9 1016.8 0.0
30/08:30am 24.3 21.5 13.3 50 6.4 ESE 20 28 11 15 1016.8 - 0.0
30/08:00am 22.9 20.9 12.8 53 5.8 E 15 19 8 10 1016.7 - 0.0
30/07:30am 22.0 19.1 12.3 54 5.5 ESE 19 24 10 13 1016.5 - 0.0
30/07:00am 21.6 19.0 12.0 54 5.4 E 17 19 9 10 1016.4 - 0.0
30/06:30am 21.8 19.1 11.8 53 5.6 E 17 20 9 11 1016.1 - 0.0
30/06:00am 21.9 19.6 11.7 52 5.7 E 15 19 8 10 1015.9 1015.7 0.0
30/05:30am 22.0 19.3 11.8 52 5.7 E 17 20 9 11 1015.8 - 0.0
30/05:00am 22.5 19.8 11.8 50 6.0 E 17 19 9 10 1015.7 - 0.0
30/04:30am 22.6 19.9 11.7 50 6.1 ENE 17 19 9 10 1015.7 - 0.0
30/04:00am 22.2 19.6 12.1 52 5.7 ENE 17 19 9 10 1015.8 - 0.0
30/03:30am 21.1 19.5 13.8 63 4.2 ENE 15 17 8 9 1016.1 - 0.0
30/03:00am 20.5 20.9 16.2 76 2.6 NE 9 11 5 6 1016.3 1016.1 0.0
30/02:30am 20.7 21.0 16.9 79 2.3 NE 11 13 6 7 1016.5 - 0.0
30/02:00am 21.2 21.5 17.8 81 2.1 ENE 13 19 7 10 1016.7 - 0.0
30/01:30am 20.6 22.7 19.3 92 0.8 SE 7 9 4 5 1016.7 - 0.0
30/01:00am 20.6 22.3 18.5 88 1.3 SSE 7 9 4 5 1016.8 - 0.0
30/12:30am 21.0 22.8 18.8 87 1.4 SSE 7 9 4 5 1016.7 - 0.0
30/12:00am 21.5 23.5 19.1 86 1.5 S 7 9 4 5 1016.7 1016.5 0.0
 
Date/Time
CST
Temp
°C
App
Temp
°C
Dew
Point
Rel
Hum
%
Delta-T
°C
Wind Press
QNH
hPa
Press
MSL
hPa
Rain
since 9 am
mm
Dir
 
Spd
km/h
Gust
km/h
Spd
kts
Gust
kts
29/11:30pm 22.8 24.4 19.2 80 2.3 SSW 9 11 5 6 1016.8 - 0.0

Other Formats:

Comma delimited format used in spreadsheet applications
http://www.bom.gov.au/fwo/IDD60801/IDD60801.94120.axf

JavaScript Object Notation format (JSON) in row-major order
http://www.bom.gov.au/fwo/IDD60801/IDD60801.94120.json